createdAt,value
2016-07-29T00:00:48.734Z,26.37
2016-07-29T00:01:48.043Z,26.37
2016-07-29T00:02:49.454Z,26.44
2016-07-29T00:03:48.052Z,26.37
2016-07-29T00:04:48.059Z,26.21
2016-07-29T00:05:49.527Z,26.21
2016-07-29T00:06:48.068Z,26.26
2016-07-29T00:07:49.686Z,26.35
2016-07-29T00:08:49.546Z,26.28
2016-07-29T00:09:48.089Z,26.18
2016-07-29T00:10:49.507Z,26.26
2016-07-29T00:11:49.513Z,26.3
2016-07-29T00:12:48.105Z,26.35
2016-07-29T00:13:49.528Z,26.28
2016-07-29T00:14:49.531Z,26.32
2016-07-29T00:15:49.538Z,26.36
2016-07-29T00:17:49.553Z,26.35
2016-07-29T00:18:48.850Z,26.43
2016-07-29T00:19:48.863Z,26.4
2016-07-29T00:20:50.622Z,26.4
2016-07-29T00:21:48.878Z,26.39
2016-07-29T00:22:49.587Z,26.4
2016-07-29T00:23:48.887Z,26.32
2016-07-29T00:24:48.237Z,26.18
2016-07-29T00:25:49.605Z,26.2
2016-07-29T00:26:48.908Z,26.23
2016-07-29T00:27:48.909Z,26.17
2016-07-29T00:28:49.627Z,26.17
2016-07-29T00:29:48.219Z,26.05
2016-07-29T00:30:48.932Z,25.9
2016-07-29T00:31:49.940Z,25.97
2016-07-29T00:32:48.941Z,25.85
2016-07-29T00:33:49.158Z,25.87
2016-07-29T00:34:49.659Z,26.02
2016-07-29T00:35:49.666Z,26.09
2016-07-29T00:36:49.671Z,26.1
2016-07-29T00:37:49.682Z,26.06
2016-07-29T00:38:48.978Z,26.13
2016-07-29T00:39:49.693Z,25.98
2016-07-29T00:40:49.706Z,25.98
2016-07-29T00:41:49.703Z,25.75
2016-07-29T00:42:50.363Z,25.79
2016-07-29T00:43:49.008Z,25.85
2016-07-29T00:44:49.724Z,25.77
2016-07-29T00:45:48.312Z,25.95
2016-07-29T00:46:49.028Z,25.99
2016-07-29T00:47:49.739Z,25.94
2016-07-29T00:48:49.742Z,26.01
2016-07-29T00:49:49.047Z,26.1
2016-07-29T00:50:49.052Z,26.02
2016-07-29T00:51:49.058Z,26.01
2016-07-29T00:52:49.063Z,25.99
2016-07-29T00:53:50.069Z,25.91
2016-07-29T00:55:03.245Z,26.02
2016-07-29T00:55:49.379Z,26.1
2016-07-29T00:56:49.794Z,26.1
2016-07-29T00:57:49.815Z,26.07
2016-07-29T00:58:49.098Z,26.02
2016-07-29T00:59:49.108Z,26.05
2016-07-29T01:00:49.111Z,25.98
2016-07-29T01:01:49.121Z,25.9
2016-07-29T01:02:49.127Z,25.99
2016-07-29T01:03:49.131Z,26.01
2016-07-29T01:04:50.552Z,26.01
2016-07-29T01:05:49.849Z,25.99
2016-07-29T01:06:49.200Z,25.91
2016-07-29T01:07:49.159Z,25.97
2016-07-29T01:08:50.313Z,26.05
2016-07-29T01:09:49.170Z,26.05
2016-07-29T01:10:49.178Z,26.09
2016-07-29T01:11:49.887Z,26.18
2016-07-29T01:12:49.182Z,26.13
2016-07-29T01:13:49.192Z,26.17
2016-07-29T01:14:49.198Z,26.13
2016-07-29T01:15:50.309Z,25.94
2016-07-29T01:16:49.919Z,25.9
2016-07-29T01:17:49.924Z,25.82
2016-07-29T01:18:48.521Z,25.87
2016-07-29T01:19:50.886Z,25.69
2016-07-29T01:20:49.940Z,25.62
2016-07-29T01:21:49.951Z,25.7
2016-07-29T01:22:49.248Z,25.73
2016-07-29T01:23:49.252Z,25.8
2016-07-29T01:24:49.971Z,25.91
2016-07-29T01:25:48.559Z,25.87
2016-07-29T01:26:49.977Z,25.88
2016-07-29T01:27:49.274Z,25.79
2016-07-29T01:28:50.968Z,25.83
2016-07-29T01:29:50.006Z,25.73
2016-07-29T01:30:50.561Z,25.76
2016-07-29T01:31:50.008Z,25.82
2016-07-29T01:32:50.011Z,25.57
2016-07-29T01:33:50.017Z,25.58
2016-07-29T01:34:49.320Z,25.6
2016-07-29T01:35:49.320Z,25.76
2016-07-29T01:36:50.037Z,25.8
2016-07-29T01:37:48.626Z,25.7
2016-07-29T01:38:50.054Z,25.55
2016-07-29T01:39:50.050Z,25.6
2016-07-29T01:40:49.350Z,25.82
2016-07-29T01:41:50.179Z,25.72
2016-07-29T01:42:50.067Z,25.51
2016-07-29T01:43:50.070Z,25.46
2016-07-29T01:44:48.665Z,25.43
2016-07-29T01:45:50.081Z,25.57
2016-07-29T01:46:49.379Z,25.76
2016-07-29T01:47:49.392Z,25.73
2016-07-29T01:48:49.392Z,25.72
2016-07-29T01:49:50.101Z,25.88
2016-07-29T01:50:49.403Z,25.87
2016-07-29T01:51:49.409Z,25.69
2016-07-29T01:52:51.023Z,25.75
2016-07-29T01:53:50.127Z,25.76
2016-07-29T01:55:04.706Z,25.87
2016-07-29T01:55:49.434Z,25.85
2016-07-29T01:56:48.729Z,25.77
2016-07-29T01:57:50.150Z,25.7
2016-07-29T01:58:50.157Z,25.83
2016-07-29T01:59:49.453Z,25.65
2016-07-29T02:00:49.462Z,25.64
2016-07-29T02:01:49.512Z,25.61
2016-07-29T02:02:49.474Z,25.72
2016-07-29T02:03:50.094Z,25.73
2016-07-29T02:04:48.774Z,25.77
2016-07-29T02:05:49.497Z,25.5
2016-07-29T02:06:49.494Z,25.43
2016-07-29T02:07:48.794Z,25.46
2016-07-29T02:08:50.218Z,25.55
2016-07-29T02:09:50.221Z,25.75
2016-07-29T02:10:49.518Z,25.7
2016-07-29T02:11:49.569Z,25.7
2016-07-29T02:12:49.528Z,25.51
2016-07-29T02:13:50.237Z,25.6
2016-07-29T02:14:51.262Z,25.5
2016-07-29T02:15:49.640Z,25.69
2016-07-29T02:16:49.046Z,25.75
2016-07-29T02:17:48.848Z,25.8
2016-07-29T02:18:49.564Z,25.85
2016-07-29T02:19:49.568Z,25.7
2016-07-29T02:20:48.865Z,25.82
2016-07-29T02:21:49.578Z,25.79
2016-07-29T02:22:50.289Z,25.67
2016-07-29T02:23:48.882Z,25.73
2016-07-29T02:24:48.938Z,25.64
2016-07-29T02:25:49.996Z,25.73
2016-07-29T02:26:48.901Z,25.8
2016-07-29T02:27:49.157Z,25.88
2016-07-29T02:28:49.621Z,25.82
2016-07-29T02:29:50.330Z,25.8
2016-07-29T02:30:49.632Z,25.87
2016-07-29T02:31:49.636Z,25.95
2016-07-29T02:32:50.351Z,25.85
2016-07-29T02:33:49.652Z,25.9
2016-07-29T02:34:48.957Z,25.9
2016-07-29T02:35:50.371Z,25.87
2016-07-29T02:36:51.126Z,25.91
2016-07-29T02:37:49.680Z,25.77
2016-07-29T02:38:49.685Z,25.35
2016-07-29T02:39:48.981Z,25.39
2016-07-29T02:40:50.400Z,25.46
2016-07-29T02:41:48.991Z,25.52
2016-07-29T02:42:50.412Z,25.6
2016-07-29T02:43:48.999Z,25.69
2016-07-29T02:44:49.010Z,25.54
2016-07-29T02:45:49.017Z,25.58
2016-07-29T02:46:50.449Z,25.7
2016-07-29T02:47:50.740Z,25.7
2016-07-29T02:48:49.034Z,25.82
2016-07-29T02:49:51.189Z,25.85
2016-07-29T02:50:50.457Z,25.73
2016-07-29T02:51:50.517Z,25.62
2016-07-29T02:52:50.468Z,25.51
2016-07-29T02:53:50.478Z,25.67
2016-07-29T02:54:49.775Z,25.76
2016-07-29T02:55:50.490Z,25.6
2016-07-29T02:56:50.496Z,25.6
2016-07-29T02:57:49.792Z,25.62
2016-07-29T02:58:50.805Z,25.43
2016-07-29T02:59:50.517Z,25.58
2016-07-29T03:00:51.433Z,25.72
2016-07-29T03:01:50.528Z,25.7
2016-07-29T03:02:50.570Z,25.7
2016-07-29T03:03:49.828Z,25.76
2016-07-29T03:04:50.540Z,25.77
2016-07-29T03:05:49.835Z,25.8
2016-07-29T03:06:50.608Z,25.73
2016-07-29T03:07:49.853Z,25.88
2016-07-29T03:08:50.566Z,25.85
2016-07-29T03:09:49.862Z,25.83
2016-07-29T03:10:49.879Z,25.88
2016-07-29T03:11:51.484Z,25.76
2016-07-29T03:12:49.898Z,25.73
2016-07-29T03:13:50.030Z,25.76
2016-07-29T03:14:49.891Z,25.72
2016-07-29T03:15:50.609Z,25.57
2016-07-29T03:16:50.615Z,25.6
2016-07-29T03:17:49.915Z,25.51
2016-07-29T03:18:49.259Z,25.46
2016-07-29T03:19:49.938Z,25.6
2016-07-29T03:20:49.224Z,25.73
2016-07-29T03:21:49.941Z,25.75
2016-07-29T03:22:51.619Z,25.83
2016-07-29T03:23:50.658Z,25.76
2016-07-29T03:25:49.960Z,25.73
2016-07-29T03:26:50.673Z,25.82
2016-07-29T03:27:49.265Z,25.73
2016-07-29T03:28:50.686Z,25.61
2016-07-29T03:29:49.994Z,25.6
2016-07-29T03:30:50.695Z,25.64
2016-07-29T03:31:50.702Z,25.51
2016-07-29T03:32:50.717Z,25.73
2016-07-29T03:33:50.986Z,25.72
2016-07-29T03:34:50.015Z,25.43
2016-07-29T03:35:50.469Z,25.46
2016-07-29T03:36:50.024Z,25.45
2016-07-29T03:37:49.323Z,25.5
2016-07-29T03:38:50.032Z,25.57
2016-07-29T03:39:50.042Z,25.72
2016-07-29T03:40:50.044Z,25.8
2016-07-29T03:41:50.762Z,25.75
2016-07-29T03:42:50.057Z,25.75
2016-07-29T03:43:50.066Z,25.7
2016-07-29T03:44:50.069Z,25.67
2016-07-29T03:45:50.076Z,25.62
2016-07-29T03:46:49.878Z,25.62
2016-07-29T03:47:49.383Z,25.67
2016-07-29T03:48:51.207Z,25.8
2016-07-29T03:49:50.808Z,25.85
2016-07-29T03:50:50.819Z,25.79
2016-07-29T03:51:50.822Z,25.73
2016-07-29T03:52:50.123Z,25.79
2016-07-29T03:53:50.122Z,25.75
2016-07-29T03:54:50.840Z,25.58
2016-07-29T03:55:49.438Z,25.76
2016-07-29T03:56:50.148Z,25.72
2016-07-29T03:57:50.154Z,25.72
2016-07-29T03:58:50.158Z,25.72
2016-07-29T03:59:51.457Z,25.54
2016-07-29T04:00:50.881Z,25.57
2016-07-29T04:01:50.890Z,25.57
2016-07-29T04:02:49.477Z,25.54
2016-07-29T04:03:50.908Z,25.39
2016-07-29T04:04:50.906Z,25.33
2016-07-29T04:05:50.199Z,25.4
2016-07-29T04:06:50.920Z,25.36
2016-07-29T04:07:50.915Z,25.36
2016-07-29T04:08:50.216Z,25.55
2016-07-29T04:09:50.930Z,25.42
2016-07-29T04:10:51.486Z,25.45
2016-07-29T04:11:50.939Z,25.57
2016-07-29T04:12:50.946Z,25.69
2016-07-29T04:13:49.540Z,25.72
2016-07-29T04:14:50.266Z,25.69
2016-07-29T04:15:50.964Z,25.79
2016-07-29T04:16:49.757Z,25.67
2016-07-29T04:18:50.276Z,25.42
2016-07-29T04:19:49.573Z,25.46
2016-07-29T04:20:50.291Z,25.54
2016-07-29T04:21:50.794Z,25.45
2016-07-29T04:22:50.346Z,25.47
2016-07-29T04:23:50.315Z,25.47
2016-07-29T04:25:05.188Z,25.61
2016-07-29T04:25:49.611Z,25.61
2016-07-29T04:26:51.026Z,25.69
2016-07-29T04:27:51.035Z,25.55
2016-07-29T04:28:49.625Z,25.6
2016-07-29T04:29:51.050Z,25.52
2016-07-29T04:30:51.326Z,25.38
2016-07-29T04:31:50.355Z,25.46
2016-07-29T04:33:50.362Z,25.4
2016-07-29T04:34:51.943Z,25.21
2016-07-29T04:35:51.080Z,25.24
2016-07-29T04:36:50.377Z,25.25
2016-07-29T04:37:49.677Z,25.36
2016-07-29T04:38:50.386Z,25.5
2016-07-29T04:39:51.106Z,25.6
2016-07-29T04:40:50.401Z,25.52
2016-07-29T04:41:49.703Z,25.46
2016-07-29T04:42:50.414Z,25.51
2016-07-29T04:43:50.985Z,25.36
2016-07-29T04:44:51.130Z,25.46
2016-07-29T04:45:52.408Z,25.57
2016-07-29T04:46:50.436Z,25.45
2016-07-29T04:47:50.445Z,25.5
2016-07-29T04:48:50.445Z,25.46
2016-07-29T04:49:51.160Z,25.43
2016-07-29T04:50:51.216Z,25.4
2016-07-29T04:51:49.757Z,25.43
2016-07-29T04:52:50.467Z,25.46
2016-07-29T04:53:51.184Z,25.43
2016-07-29T04:54:51.389Z,25.51
2016-07-29T04:55:51.192Z,25.46
2016-07-29T04:56:50.493Z,25.39
2016-07-29T04:57:49.804Z,25.45
2016-07-29T04:58:50.506Z,25.46
2016-07-29T04:59:51.217Z,25.52
2016-07-29T05:00:50.520Z,25.55
2016-07-29T05:01:51.225Z,25.6
2016-07-29T05:02:50.527Z,25.47
2016-07-29T05:03:51.236Z,25.58
2016-07-29T05:04:51.240Z,25.35
2016-07-29T05:05:50.743Z,25.45
2016-07-29T05:06:50.550Z,25.39
2016-07-29T05:07:50.555Z,25.42
2016-07-29T05:08:49.860Z,25.36
2016-07-29T05:09:50.615Z,25.45
2016-07-29T05:10:51.276Z,25.46
2016-07-29T05:11:51.286Z,25.6
2016-07-29T05:12:50.582Z,25.57
2016-07-29T05:13:50.594Z,25.52
2016-07-29T05:14:50.592Z,25.46
2016-07-29T05:15:50.599Z,25.45
2016-07-29T05:16:50.656Z,25.47
2016-07-29T05:17:51.317Z,25.52
2016-07-29T05:18:52.125Z,25.43
2016-07-29T05:19:50.673Z,25.38
2016-07-29T05:20:50.629Z,25.46
2016-07-29T05:21:51.336Z,25.42
2016-07-29T05:22:49.932Z,25.36
2016-07-29T05:23:51.355Z,25.46
2016-07-29T05:24:50.701Z,25.46
2016-07-29T05:25:50.657Z,25.51
2016-07-29T05:26:51.372Z,25.72
2016-07-29T05:27:49.963Z,25.6
2016-07-29T05:28:50.678Z,25.55
2016-07-29T05:29:51.631Z,25.45
2016-07-29T05:30:51.395Z,25.55
2016-07-29T05:31:50.744Z,25.65
2016-07-29T05:32:51.409Z,25.55
2016-07-29T05:33:50.753Z,25.65
2016-07-29T05:34:51.419Z,25.7
2016-07-29T05:35:50.011Z,25.7
2016-07-29T05:36:50.724Z,25.69
2016-07-29T05:37:51.434Z,25.69
2016-07-29T05:38:50.733Z,25.8
2016-07-29T05:39:51.450Z,25.58
2016-07-29T05:40:51.600Z,25.69
2016-07-29T05:41:50.757Z,25.58
2016-07-29T05:42:50.766Z,25.51
2016-07-29T05:43:51.472Z,25.5
2016-07-29T05:44:50.070Z,25.52
2016-07-29T05:45:50.780Z,25.55
2016-07-29T05:46:51.493Z,25.67
2016-07-29T05:47:51.498Z,25.65
2016-07-29T05:48:50.800Z,25.52
2016-07-29T05:49:50.809Z,25.43
2016-07-29T05:50:51.517Z,25.54
2016-07-29T05:51:50.974Z,25.46
2016-07-29T05:52:51.579Z,25.46
2016-07-29T05:53:52.254Z,25.55
2016-07-29T05:54:50.834Z,25.52
2016-07-29T05:55:50.845Z,25.54
2016-07-29T05:56:51.552Z,25.6
2016-07-29T05:57:50.849Z,25.58
2016-07-29T05:58:50.149Z,25.58
2016-07-29T05:59:51.568Z,25.8
2016-07-29T06:00:51.578Z,25.73
2016-07-29T06:01:50.169Z,25.9
2016-07-29T06:02:51.129Z,25.99
2016-07-29T06:03:51.603Z,26.18
2016-07-29T06:04:51.745Z,26.12
2016-07-29T06:05:50.898Z,25.83
2016-07-29T06:06:51.611Z,25.9
2016-07-29T06:07:50.967Z,25.76
2016-07-29T06:08:51.631Z,25.82
2016-07-29T06:09:50.936Z,25.83
2016-07-29T06:10:50.935Z,25.73
2016-07-29T06:11:50.941Z,25.7
2016-07-29T06:12:50.943Z,25.72
2016-07-29T06:13:50.957Z,25.64
2016-07-29T06:14:51.669Z,25.8
2016-07-29T06:15:51.816Z,25.83
2016-07-29T06:16:50.971Z,26.1
2016-07-29T06:17:51.685Z,26.07
2016-07-29T06:18:50.983Z,26.29
2016-07-29T06:19:50.294Z,26.3
2016-07-29T06:20:51.010Z,26.17
2016-07-29T06:21:51.005Z,25.91
2016-07-29T06:22:51.714Z,26.06
2016-07-29T06:23:51.726Z,26.06
2016-07-29T06:24:51.735Z,26.07
2016-07-29T06:25:50.479Z,26.07
2016-07-29T06:26:52.141Z,26.12
2016-07-29T06:27:50.336Z,26.2
2016-07-29T06:28:50.641Z,26.15
2016-07-29T06:29:51.060Z,26.18
2016-07-29T06:30:51.771Z,26.09
2016-07-29T06:31:51.788Z,26.1
2016-07-29T06:32:51.852Z,26.12
2016-07-29T06:33:50.396Z,26.26
2016-07-29T06:34:50.387Z,26.17
2016-07-29T06:35:50.396Z,26.17
2016-07-29T06:36:51.106Z,26.13
2016-07-29T06:37:52.366Z,26.29
2016-07-29T06:38:51.126Z,26.01
2016-07-29T06:39:51.144Z,26.02
2016-07-29T06:40:51.855Z,26.12
2016-07-29T06:41:51.864Z,26.37
2016-07-29T06:42:51.875Z,26.35
2016-07-29T06:43:51.357Z,26.4
2016-07-29T06:44:51.177Z,26.47
2016-07-29T06:45:51.889Z,26.45
2016-07-29T06:46:51.177Z,26.43
2016-07-29T06:47:51.897Z,26.33
2016-07-29T06:48:51.742Z,26.28
2016-07-29T06:49:51.208Z,26.45
2016-07-29T06:50:53.053Z,26.39
2016-07-29T06:51:51.926Z,26.36
2016-07-29T06:53:51.988Z,26.45
2016-07-29T06:54:50.532Z,26.45
2016-07-29T06:55:51.250Z,26.47
2016-07-29T06:56:51.251Z,26.48
2016-07-29T06:57:50.560Z,26.47
2016-07-29T06:58:51.978Z,26.48
2016-07-29T06:59:51.374Z,26.52
2016-07-29T07:00:51.284Z,26.51
2016-07-29T07:01:52.928Z,26.51
2016-07-29T07:03:52.064Z,26.45
2016-07-29T07:04:51.314Z,26.5
2016-07-29T07:05:50.615Z,26.55
2016-07-29T07:06:52.031Z,26.39
2016-07-29T07:07:52.044Z,26.52
2016-07-29T07:08:51.345Z,26.26
2016-07-29T07:09:51.358Z,26.33
2016-07-29T07:10:51.409Z,26.36
2016-07-29T07:11:50.655Z,26.52
2016-07-29T07:12:52.314Z,26.45
2016-07-29T07:13:51.380Z,26.45
2016-07-29T07:14:51.584Z,26.52
2016-07-29T07:15:51.399Z,26.51
2016-07-29T07:16:52.112Z,26.33
2016-07-29T07:17:50.704Z,26.26
2016-07-29T07:18:51.416Z,26.25
2016-07-29T07:19:51.420Z,26.1
2016-07-29T07:20:51.433Z,26.29
2016-07-29T07:21:51.449Z,26.32
2016-07-29T07:22:51.442Z,26.4
2016-07-29T07:23:51.451Z,26.39
2016-07-29T07:24:51.462Z,26.48
2016-07-29T07:25:52.180Z,26.48
2016-07-29T07:26:50.763Z,26.6
2016-07-29T07:27:52.198Z,26.52
2016-07-29T07:28:51.536Z,26.58
2016-07-29T07:29:52.181Z,26.5
2016-07-29T07:30:51.503Z,26.51
2016-07-29T07:31:52.263Z,26.57
2016-07-29T07:32:51.516Z,26.6
2016-07-29T07:33:51.520Z,26.63
2016-07-29T07:34:52.986Z,26.76
2016-07-29T07:35:52.245Z,26.75
2016-07-29T07:36:52.309Z,26.7
2016-07-29T07:37:51.562Z,26.8
2016-07-29T07:38:52.771Z,26.75
2016-07-29T07:39:51.568Z,26.67
2016-07-29T07:40:51.575Z,26.73
2016-07-29T07:41:51.584Z,26.66
2016-07-29T07:42:51.591Z,26.65
2016-07-29T07:43:51.600Z,26.69
2016-07-29T07:44:51.611Z,26.63
2016-07-29T07:45:52.618Z,26.51
2016-07-29T07:46:52.331Z,26.6
2016-07-29T07:47:52.337Z,26.54
2016-07-29T07:48:51.688Z,26.65
2016-07-29T07:49:53.103Z,26.65
2016-07-29T07:50:51.656Z,26.63
2016-07-29T07:51:52.370Z,26.58
2016-07-29T07:52:51.673Z,26.51
2016-07-29T07:53:51.731Z,26.47
2016-07-29T07:54:51.690Z,26.52
2016-07-29T07:55:52.399Z,26.54
2016-07-29T07:56:51.701Z,26.52
2016-07-29T07:57:51.711Z,26.65
2016-07-29T07:58:53.268Z,26.63
2016-07-29T07:59:51.721Z,26.63
2016-07-29T08:00:53.291Z,26.51
2016-07-29T08:01:51.740Z,26.52
2016-07-29T08:02:51.038Z,26.54
2016-07-29T08:03:51.049Z,26.58
2016-07-29T08:04:51.763Z,26.55
2016-07-29T08:05:52.475Z,26.58
2016-07-29T08:06:51.774Z,26.57
2016-07-29T08:07:51.129Z,26.48
2016-07-29T08:08:51.790Z,26.5
2016-07-29T08:09:52.551Z,26.47
2016-07-29T08:10:51.099Z,26.4
2016-07-29T08:11:52.471Z,26.47
2016-07-29T08:12:51.867Z,26.48
2016-07-29T08:13:51.821Z,26.54
2016-07-29T08:14:52.587Z,26.55
2016-07-29T08:15:52.544Z,26.5
2016-07-29T08:16:52.547Z,26.51
2016-07-29T08:17:52.578Z,26.62
2016-07-29T08:18:52.563Z,26.54
2016-07-29T08:19:51.865Z,26.54
2016-07-29T08:20:51.920Z,26.57
2016-07-29T08:21:51.881Z,26.63
2016-07-29T08:22:53.243Z,26.65
2016-07-29T08:23:51.892Z,26.66
2016-07-29T08:24:51.193Z,26.72
2016-07-29T08:25:52.665Z,26.69
2016-07-29T08:26:51.965Z,26.67
2016-07-29T08:27:51.924Z,26.58
2016-07-29T08:28:52.638Z,26.6
2016-07-29T08:29:51.949Z,26.55
2016-07-29T08:30:51.234Z,26.54
2016-07-29T08:31:52.250Z,26.52
2016-07-29T08:32:52.011Z,26.51
2016-07-29T08:33:52.919Z,26.52
2016-07-29T08:34:51.985Z,26.6
2016-07-29T08:35:52.181Z,26.63
2016-07-29T08:36:52.690Z,26.54
2016-07-29T08:37:51.995Z,26.52
2016-07-29T08:38:52.003Z,26.57
2016-07-29T08:39:52.021Z,26.57
2016-07-29T08:40:51.322Z,26.54
2016-07-29T08:41:52.732Z,26.54
2016-07-29T08:42:52.026Z,26.65
2016-07-29T08:43:52.034Z,26.57
2016-07-29T08:44:53.396Z,26.4
2016-07-29T08:45:52.053Z,26.32
2016-07-29T08:46:52.765Z,26.32
2016-07-29T08:47:52.771Z,26.26
2016-07-29T08:48:52.779Z,26.2
2016-07-29T08:49:52.078Z,26.21
2016-07-29T08:50:52.085Z,26.18
2016-07-29T08:51:52.088Z,26.13
2016-07-29T08:52:51.440Z,26.1
2016-07-29T08:53:52.808Z,26.06
2016-07-29T08:55:06.330Z,26.2
2016-07-29T08:55:53.241Z,26.23
2016-07-29T08:56:52.880Z,26.28
2016-07-29T08:57:52.130Z,26.18
2016-07-29T08:58:52.136Z,26.25
2016-07-29T08:59:52.141Z,26.2
2016-07-29T09:00:52.151Z,26.15
2016-07-29T09:01:52.155Z,26.25
2016-07-29T09:02:52.167Z,26.25
2016-07-29T09:03:51.779Z,26.3
2016-07-29T09:04:52.172Z,26.26
2016-07-29T09:05:52.183Z,26.13
2016-07-29T09:06:53.137Z,26.17
2016-07-29T09:07:52.904Z,26.18
2016-07-29T09:08:52.905Z,26.29
2016-07-29T09:09:52.913Z,26.36
2016-07-29T09:10:52.212Z,26.2
2016-07-29T09:11:51.508Z,26.29
2016-07-29T09:12:52.237Z,26.29
2016-07-29T09:13:52.943Z,26.32
2016-07-29T09:14:52.288Z,26.39
2016-07-29T09:15:52.252Z,26.29
2016-07-29T09:16:52.300Z,26.28
2016-07-29T09:17:52.728Z,26.02
2016-07-29T09:19:53.955Z,26.09
2016-07-29T09:20:52.288Z,26.15
2016-07-29T09:21:51.581Z,26.1
2016-07-29T09:22:51.579Z,26.15
2016-07-29T09:23:53.002Z,26.09
2016-07-29T09:24:52.299Z,26.09
2016-07-29T09:25:52.309Z,26.07
2016-07-29T09:26:53.025Z,26.05
2016-07-29T09:27:51.620Z,26.2
2016-07-29T09:28:53.985Z,26.12
2016-07-29T09:29:52.334Z,25.99
2016-07-29T09:30:52.341Z,25.92
2016-07-29T09:31:51.639Z,25.83
2016-07-29T09:32:53.470Z,25.82
2016-07-29T09:34:53.078Z,25.92
2016-07-29T09:35:52.368Z,25.97
2016-07-29T09:36:53.085Z,25.98
2016-07-29T09:37:51.676Z,25.98
2016-07-29T09:38:53.099Z,25.99
2016-07-29T09:39:53.102Z,26.01
2016-07-29T09:40:51.695Z,26.05
2016-07-29T09:41:54.092Z,26.15
2016-07-29T09:42:53.121Z,26.17
2016-07-29T09:43:53.471Z,25.99
2016-07-29T09:44:53.140Z,26.13
2016-07-29T09:45:52.486Z,25.98
2016-07-29T09:46:51.738Z,25.91
2016-07-29T09:47:52.446Z,25.98
2016-07-29T09:48:51.740Z,25.88
2016-07-29T09:49:52.456Z,25.92
2016-07-29T09:50:53.184Z,25.97
2016-07-29T09:51:53.171Z,26.01
2016-07-29T09:52:52.483Z,26.12
2016-07-29T09:53:52.481Z,26.12
2016-07-29T09:54:53.541Z,26.2
2016-07-29T09:55:53.216Z,26.12
2016-07-29T09:56:52.495Z,25.99
2016-07-29T09:57:53.264Z,26.06
2016-07-29T09:58:52.512Z,26.13
2016-07-29T09:59:52.520Z,25.98
2016-07-29T10:00:52.524Z,26.09
2016-07-29T10:01:52.593Z,26.12
2016-07-29T10:02:53.241Z,25.98
2016-07-29T10:03:53.775Z,26.02
2016-07-29T10:04:52.550Z,25.99
2016-07-29T10:05:53.862Z,26.15
2016-07-29T10:06:51.854Z,26.12
2016-07-29T10:07:51.860Z,26.1
2016-07-29T10:08:52.573Z,26.1
2016-07-29T10:09:52.593Z,26.1
2016-07-29T10:10:52.640Z,26.12
2016-07-29T10:11:53.301Z,26.02
2016-07-29T10:12:53.304Z,26.15
2016-07-29T10:13:53.313Z,26.1
2016-07-29T10:14:53.906Z,26.09
2016-07-29T10:15:52.615Z,26.17
2016-07-29T10:16:52.474Z,26.18
2016-07-29T10:17:52.632Z,26.21
2016-07-29T10:18:53.611Z,26.1
2016-07-29T10:19:52.691Z,26.07
2016-07-29T10:20:51.942Z,26.13
2016-07-29T10:21:52.654Z,26.05
2016-07-29T10:22:53.371Z,25.99
2016-07-29T10:23:52.855Z,26.06
2016-07-29T10:24:53.382Z,26.02
2016-07-29T10:25:52.680Z,26.02
2016-07-29T10:26:52.691Z,26.06
2016-07-29T10:27:53.348Z,26.07
2016-07-29T10:28:52.761Z,26.12
2016-07-29T10:29:52.708Z,26.02
2016-07-29T10:30:52.719Z,26.13
2016-07-29T10:31:52.013Z,26.17
2016-07-29T10:32:52.778Z,26.15
2016-07-29T10:33:52.080Z,26.12
2016-07-29T10:34:53.449Z,26.01
2016-07-29T10:35:52.748Z,25.95
2016-07-29T10:36:52.049Z,25.91
2016-07-29T10:37:52.768Z,25.77
2016-07-29T10:38:52.973Z,25.76
2016-07-29T10:39:52.072Z,25.7
2016-07-29T10:40:52.802Z,25.55
2016-07-29T10:41:53.495Z,25.73
2016-07-29T10:42:52.793Z,25.77
2016-07-29T10:43:52.851Z,25.8
2016-07-29T10:44:52.809Z,25.88
2016-07-29T10:45:52.813Z,25.77
2016-07-29T10:46:52.819Z,25.75
2016-07-29T10:47:53.534Z,25.77
2016-07-29T10:48:53.546Z,25.87
2016-07-29T10:49:53.389Z,25.85
2016-07-29T10:50:52.136Z,25.88
2016-07-29T10:51:52.144Z,25.92
2016-07-29T10:52:52.857Z,25.9
2016-07-29T10:53:53.572Z,25.97
2016-07-29T10:55:07.799Z,25.9
2016-07-29T10:55:53.585Z,25.95
2016-07-29T10:56:53.641Z,25.9
2016-07-29T10:57:52.183Z,25.99
2016-07-29T10:58:53.605Z,25.87
2016-07-29T10:59:53.610Z,25.76
2016-07-29T11:00:53.969Z,25.85
2016-07-29T11:01:52.931Z,25.82
2016-07-29T11:02:52.925Z,25.87
2016-07-29T11:03:53.642Z,25.79
2016-07-29T11:04:53.437Z,25.73
2016-07-29T11:05:53.705Z,25.83
2016-07-29T11:06:52.244Z,25.94
2016-07-29T11:07:52.961Z,25.87
2016-07-29T11:08:53.016Z,25.88
2016-07-29T11:09:52.973Z,25.85
2016-07-29T11:10:54.064Z,25.87
2016-07-29T11:11:53.890Z,25.75
2016-07-29T11:12:52.992Z,25.79
2016-07-29T11:13:54.604Z,25.83
2016-07-29T11:14:53.717Z,25.9
2016-07-29T11:15:53.011Z,25.94
2016-07-29T11:16:53.723Z,25.88
2016-07-29T11:17:52.321Z,25.79
2016-07-29T11:18:53.298Z,25.77
2016-07-29T11:19:53.040Z,25.77
2016-07-29T11:20:52.384Z,25.87
2016-07-29T11:21:52.342Z,25.94
2016-07-29T11:22:53.764Z,25.95
2016-07-29T11:23:53.066Z,25.92
2016-07-29T11:24:54.280Z,25.98
2016-07-29T11:25:53.075Z,26.09
2016-07-29T11:26:53.635Z,26.02
2016-07-29T11:27:53.092Z,26.12
2016-07-29T11:28:53.096Z,25.95
2016-07-29T11:29:53.104Z,25.87
2016-07-29T11:30:53.537Z,25.94
2016-07-29T11:31:53.872Z,25.9
2016-07-29T11:32:53.176Z,25.87
2016-07-29T11:33:53.129Z,25.97
2016-07-29T11:34:52.425Z,26.02
2016-07-29T11:35:53.143Z,25.95
2016-07-29T11:36:53.147Z,26.02
2016-07-29T11:37:54.701Z,25.95
2016-07-29T11:38:53.163Z,25.9
2016-07-29T11:39:53.169Z,25.9
2016-07-29T11:40:52.467Z,25.88
2016-07-29T11:41:53.886Z,25.87
2016-07-29T11:42:53.894Z,26.06
2016-07-29T11:43:53.196Z,25.97
2016-07-29T11:44:53.990Z,26.06
2016-07-29T11:45:52.500Z,25.99
2016-07-29T11:46:53.796Z,26.02
2016-07-29T11:47:53.229Z,25.98
2016-07-29T11:48:53.339Z,25.9
2016-07-29T11:49:53.269Z,25.95
2016-07-29T11:50:52.536Z,26.13
2016-07-29T11:51:53.283Z,26.13
2016-07-29T11:52:53.251Z,26.06
2016-07-29T11:53:54.360Z,26.05
2016-07-29T11:54:53.268Z,25.98
2016-07-29T11:55:52.566Z,26.13
2016-07-29T11:56:53.282Z,26.13
2016-07-29T11:57:53.288Z,26.15
2016-07-29T11:58:54.023Z,26.18
2016-07-29T11:59:53.350Z,26.25
2016-07-29T12:00:52.801Z,26.17
2016-07-29T12:01:53.366Z,26.2
2016-07-29T12:02:55.026Z,26.17
2016-07-29T12:03:53.334Z,25.99
2016-07-29T12:04:53.091Z,26.01
2016-07-29T12:05:53.455Z,26.01
2016-07-29T12:06:53.052Z,26.07
2016-07-29T12:07:54.189Z,26.07
2016-07-29T12:08:54.071Z,26.1
2016-07-29T12:09:55.339Z,26.09
2016-07-29T12:10:53.377Z,26.06
2016-07-29T12:11:55.693Z,26.12
2016-07-29T12:12:53.399Z,26.12
2016-07-29T12:13:53.447Z,26.09
2016-07-29T12:14:54.112Z,26.15
2016-07-29T12:15:54.119Z,26.1
2016-07-29T12:16:52.714Z,26.15
2016-07-29T12:17:54.212Z,26.17
2016-07-29T12:18:55.348Z,26.21
2016-07-29T12:19:53.487Z,26.02
2016-07-29T12:20:52.991Z,26.02
2016-07-29T12:21:53.588Z,26.1
2016-07-29T12:22:54.164Z,26.1
2016-07-29T12:23:54.225Z,26.13
2016-07-29T12:24:53.518Z,26.01
2016-07-29T12:25:53.587Z,26.01
2016-07-29T12:26:53.487Z,25.99
2016-07-29T12:27:53.774Z,25.99
2016-07-29T12:28:52.794Z,26.05
2016-07-29T12:29:54.221Z,25.98
2016-07-29T12:30:53.534Z,26.06
2016-07-29T12:31:53.669Z,26.06
2016-07-29T12:32:54.361Z,26.07
2016-07-29T12:33:53.533Z,26.09
2016-07-29T12:34:56.048Z,26.02
2016-07-29T12:35:53.571Z,25.97
2016-07-29T12:36:54.358Z,25.99
2016-07-29T12:37:53.587Z,25.98
2016-07-29T12:38:53.573Z,25.92
2016-07-29T12:39:53.626Z,25.98
2016-07-29T12:40:54.285Z,26.05
2016-07-29T12:41:54.600Z,25.97
2016-07-29T12:42:52.891Z,26.12
2016-07-29T12:43:55.556Z,26.05
2016-07-29T12:44:54.466Z,26.1
2016-07-29T12:45:53.613Z,26.13
2016-07-29T12:46:53.646Z,26.13
2016-07-29T12:47:54.356Z,26.12
2016-07-29T12:48:55.195Z,25.99
2016-07-29T12:49:53.711Z,26.1
2016-07-29T12:50:54.765Z,26.02
2016-07-29T12:51:53.003Z,26.09
2016-07-29T12:52:54.361Z,26.15
2016-07-29T12:53:54.500Z,26.12
2016-07-29T12:54:52.985Z,26.13
2016-07-29T12:55:54.889Z,26.06
2016-07-29T12:56:52.980Z,26.02
2016-07-29T12:57:55.425Z,26.12
2016-07-29T12:58:54.487Z,26.12
2016-07-29T12:59:53.715Z,26.09
2016-07-29T13:00:53.760Z,26.1
2016-07-29T13:01:53.822Z,26.17
2016-07-29T13:02:55.037Z,26.02
2016-07-29T13:03:54.455Z,26.17
2016-07-29T13:04:53.872Z,26.21